createdAt,value
2023-01-25T00:00:17.059Z,997.09
2023-01-25T00:00:47.830Z,997.09
2023-01-25T00:01:18.971Z,996.88
2023-01-25T00:02:21.775Z,996.99
2023-01-25T00:02:52.357Z,996.82
2023-01-25T00:03:23.324Z,996.82
2023-01-25T00:03:53.937Z,996.99
2023-01-25T00:04:24.969Z,996.99
2023-01-25T00:05:05.909Z,996.88
2023-01-25T00:05:26.786Z,996.88
2023-01-25T00:05:58.451Z,997.09
2023-01-25T00:06:33.317Z,997.09
2023-01-25T00:07:00.050Z,997.09
2023-01-25T00:07:31.547Z,997.09
2023-01-25T00:08:02.754Z,997.09
2023-01-25T00:08:33.471Z,997.09
2023-01-25T00:09:03.695Z,997.09
2023-01-25T00:09:34.847Z,997.09
2023-01-25T00:10:06.043Z,996.99
2023-01-25T00:10:36.643Z,996.99
2023-01-25T00:11:07.721Z,996.88
2023-01-25T00:11:39.580Z,996.88
2023-01-25T00:12:11.059Z,996.88
2023-01-25T00:12:42.102Z,996.88
2023-01-25T00:13:12.510Z,996.88
2023-01-25T00:13:43.082Z,996.88
2023-01-25T00:14:13.532Z,996.99
2023-01-25T00:14:44.457Z,996.99
2023-01-25T00:15:15.434Z,996.99
2023-01-25T00:15:47.706Z,996.99
2023-01-25T00:16:19.363Z,996.71
2023-01-25T00:16:49.547Z,996.71
2023-01-25T00:17:21.384Z,996.88
2023-01-25T00:17:51.592Z,996.88
2023-01-25T00:18:22.515Z,996.88
2023-01-25T00:19:23.968Z,996.99
2023-01-25T00:19:55.362Z,997.09
2023-01-25T00:20:25.867Z,997.09
2023-01-25T00:20:56.675Z,996.88
2023-01-25T00:21:27.858Z,996.88
2023-01-25T00:21:59.148Z,996.99
2023-01-25T00:22:30.511Z,996.99
2023-01-25T00:23:00.653Z,996.99
2023-01-25T00:23:32.416Z,996.99
2023-01-25T00:24:03.272Z,996.82
2023-01-25T00:24:33.877Z,996.82
2023-01-25T00:25:06.064Z,996.99
2023-01-25T00:25:35.646Z,996.99
2023-01-25T00:26:06.742Z,996.99
2023-01-25T00:26:38.104Z,996.99
2023-01-25T00:27:09.952Z,996.82
2023-01-25T00:27:41.020Z,996.82
2023-01-25T00:28:12.141Z,996.88
2023-01-25T00:28:42.753Z,996.88
2023-01-25T00:29:13.831Z,996.99
2023-01-25T00:29:44.417Z,996.99
2023-01-25T00:30:15.554Z,996.88
2023-01-25T00:30:45.891Z,996.88
2023-01-25T00:31:16.889Z,996.88
2023-01-25T00:31:48.049Z,996.88
2023-01-25T00:32:19.894Z,996.82
2023-01-25T00:32:49.913Z,996.82
2023-01-25T00:33:22.779Z,996.82
2023-01-25T00:33:53.128Z,996.71
2023-01-25T00:34:24.415Z,996.71
2023-01-25T00:34:55.291Z,996.82
2023-01-25T00:35:24.968Z,996.82
2023-01-25T00:35:55.722Z,996.71
2023-01-25T00:36:26.582Z,996.71
2023-01-25T00:36:57.905Z,996.61
2023-01-25T00:37:28.941Z,996.61
2023-01-25T00:38:31.892Z,996.71
2023-01-25T00:39:02.859Z,996.82
2023-01-25T00:39:34.033Z,996.82
2023-01-25T00:40:04.494Z,996.88
2023-01-25T00:40:34.863Z,996.88
2023-01-25T00:41:05.688Z,996.61
2023-01-25T00:41:36.885Z,996.61
2023-01-25T00:42:08.436Z,996.71
2023-01-25T00:42:38.892Z,996.71
2023-01-25T00:43:10.731Z,996.88
2023-01-25T00:43:41.967Z,996.88
2023-01-25T00:44:43.732Z,996.88
2023-01-25T00:45:14.754Z,996.99
2023-01-25T00:45:44.679Z,996.99
2023-01-25T00:46:16.112Z,996.82
2023-01-25T00:46:46.805Z,996.82
2023-01-25T00:47:17.919Z,996.82
2023-01-25T00:47:49.374Z,996.82
2023-01-25T00:48:20.303Z,996.82
2023-01-25T00:48:52.008Z,996.88
2023-01-25T00:49:23.558Z,996.88
2023-01-25T00:49:53.567Z,996.88
2023-01-25T00:50:24.823Z,996.88
2023-01-25T00:50:54.949Z,996.88
2023-01-25T00:51:25.996Z,996.88
2023-01-25T00:51:56.821Z,996.88
2023-01-25T00:52:28.072Z,996.88
2023-01-25T00:52:58.746Z,996.82
2023-01-25T00:53:29.782Z,996.82
2023-01-25T00:54:03.132Z,996.88
2023-01-25T00:54:32.914Z,996.88
2023-01-25T00:55:03.951Z,996.71
2023-01-25T00:55:34.122Z,996.71
2023-01-25T00:56:05.250Z,996.88
2023-01-25T00:56:35.813Z,996.88
2023-01-25T00:57:06.748Z,996.82
2023-01-25T00:57:37.826Z,996.82
2023-01-25T00:58:08.922Z,996.82
2023-01-25T00:58:49.430Z,996.82
2023-01-25T00:59:11.894Z,996.82
2023-01-25T00:59:43.724Z,996.82
2023-01-25T01:00:14.792Z,996.82
2023-01-25T01:00:54.676Z,996.82
2023-01-25T01:01:14.957Z,996.61
2023-01-25T01:01:45.848Z,996.61
2023-01-25T01:02:16.907Z,996.61
2023-01-25T01:03:03.816Z,996.61
2023-01-25T01:03:19.062Z,996.61
2023-01-25T01:04:21.693Z,996.82
2023-01-25T01:04:53.515Z,996.71
2023-01-25T01:05:23.956Z,996.71
2023-01-25T01:05:54.160Z,996.82
2023-01-25T01:06:25.269Z,996.82
2023-01-25T01:06:57.183Z,996.51
2023-01-25T01:07:27.010Z,996.51
2023-01-25T01:07:58.295Z,996.61
2023-01-25T01:08:29.262Z,996.61
2023-01-25T01:08:59.839Z,996.88
2023-01-25T01:09:31.879Z,996.88
2023-01-25T01:10:03.148Z,996.71
2023-01-25T01:10:33.690Z,996.71
2023-01-25T01:11:04.731Z,996.82
2023-01-25T01:11:34.942Z,996.82
2023-01-25T01:12:06.395Z,996.61
2023-01-25T01:12:37.342Z,996.61
2023-01-25T01:13:07.829Z,996.82
2023-01-25T01:13:39.116Z,996.82
2023-01-25T01:14:10.130Z,996.71
2023-01-25T01:14:41.285Z,996.71
2023-01-25T01:15:15.049Z,996.61
2023-01-25T01:15:43.980Z,996.61
2023-01-25T01:16:14.521Z,996.71
2023-01-25T01:16:45.292Z,996.71
2023-01-25T01:17:16.387Z,996.61
2023-01-25T01:17:50.071Z,996.61
2023-01-25T01:18:25.224Z,996.71
2023-01-25T01:18:48.848Z,996.71
2023-01-25T01:19:20.032Z,996.71
2023-01-25T01:19:52.434Z,996.82
2023-01-25T01:20:22.894Z,996.82
2023-01-25T01:20:53.483Z,996.88
2023-01-25T01:21:24.494Z,996.88
2023-01-25T01:21:55.441Z,996.71
2023-01-25T01:22:25.952Z,996.71
2023-01-25T01:22:56.713Z,996.82
2023-01-25T01:23:28.200Z,996.82
2023-01-25T01:23:59.200Z,996.71
2023-01-25T01:24:29.827Z,996.71
2023-01-25T01:25:01.363Z,996.71
2023-01-25T01:25:32.372Z,996.71
2023-01-25T01:26:03.504Z,996.61
2023-01-25T01:26:34.415Z,996.61
2023-01-25T01:27:04.986Z,996.61
2023-01-25T01:28:07.775Z,996.82
2023-01-25T01:28:38.503Z,996.82
2023-01-25T01:29:09.412Z,996.71
2023-01-25T01:29:40.237Z,996.71
2023-01-25T01:30:13.798Z,996.61
2023-01-25T01:30:42.687Z,996.61
2023-01-25T01:31:14.645Z,996.71
2023-01-25T01:31:44.575Z,996.71
2023-01-25T01:32:15.796Z,996.61
2023-01-25T01:32:46.302Z,996.61
2023-01-25T01:33:17.103Z,996.71
2023-01-25T01:33:54.954Z,996.71
2023-01-25T01:34:19.129Z,996.71
2023-01-25T01:34:49.888Z,996.82
2023-01-25T01:35:22.671Z,996.82
2023-01-25T01:35:52.708Z,996.71
2023-01-25T01:36:24.149Z,996.71
2023-01-25T01:36:54.820Z,996.82
2023-01-25T01:37:28.974Z,996.82
2023-01-25T01:37:55.872Z,996.99
2023-01-25T01:38:26.996Z,996.99
2023-01-25T01:38:58.653Z,996.88
2023-01-25T01:39:29.391Z,996.88
2023-01-25T01:39:59.858Z,996.88
2023-01-25T01:40:32.659Z,996.88
2023-01-25T01:41:02.829Z,996.71
2023-01-25T01:41:34.070Z,996.71
2023-01-25T01:42:04.519Z,996.82
2023-01-25T01:42:35.256Z,996.82
2023-01-25T01:43:05.943Z,996.61
2023-01-25T01:43:36.980Z,996.61
2023-01-25T01:44:08.068Z,996.82
2023-01-25T01:44:39.367Z,996.82
2023-01-25T01:45:10.575Z,996.82
2023-01-25T01:45:41.748Z,996.82
2023-01-25T01:46:13.238Z,996.71
2023-01-25T01:46:44.212Z,996.71
2023-01-25T01:47:14.570Z,996.88
2023-01-25T01:47:45.071Z,996.88
2023-01-25T01:48:47.155Z,996.82
2023-01-25T01:49:18.318Z,996.82
2023-01-25T01:49:49.901Z,996.88
2023-01-25T01:50:20.529Z,996.88
2023-01-25T01:50:52.308Z,996.71
2023-01-25T01:51:23.540Z,996.71
2023-01-25T01:51:54.415Z,996.61
2023-01-25T01:52:25.103Z,996.61
2023-01-25T01:52:55.247Z,996.71
2023-01-25T01:53:26.508Z,996.71
2023-01-25T01:53:57.140Z,996.71
2023-01-25T01:54:28.411Z,996.71
2023-01-25T01:54:59.228Z,996.88
2023-01-25T01:55:30.096Z,996.88
2023-01-25T01:56:01.728Z,996.82
2023-01-25T01:56:33.319Z,996.82
2023-01-25T01:57:04.799Z,996.51
2023-01-25T01:57:34.608Z,996.51
2023-01-25T01:58:05.340Z,996.61
2023-01-25T01:58:36.327Z,996.61
2023-01-25T01:59:07.187Z,996.71
2023-01-25T01:59:38.561Z,996.71
2023-01-25T02:00:10.167Z,996.71
2023-01-25T02:00:40.065Z,996.71
2023-01-25T02:01:12.877Z,996.61
2023-01-25T02:01:43.930Z,996.61
2023-01-25T02:02:13.841Z,996.71
2023-01-25T02:02:45.082Z,996.71
2023-01-25T02:03:15.597Z,996.61
2023-01-25T02:03:46.127Z,996.61
2023-01-25T02:04:17.072Z,996.61
2023-01-25T02:04:48.458Z,996.61
2023-01-25T02:05:22.998Z,996.61
2023-01-25T02:06:22.148Z,996.71
2023-01-25T02:06:53.105Z,996.51
2023-01-25T02:07:24.222Z,996.51
2023-01-25T02:07:55.259Z,996.61
2023-01-25T02:08:25.617Z,996.61
2023-01-25T02:08:56.310Z,996.51
2023-01-25T02:09:26.886Z,996.51
2023-01-25T02:09:58.382Z,996.51
2023-01-25T02:10:29.362Z,996.51
2023-01-25T02:11:00.421Z,996.61
2023-01-25T02:11:32.229Z,996.61
2023-01-25T02:12:02.790Z,996.51
2023-01-25T02:12:33.772Z,996.51
2023-01-25T02:13:04.614Z,996.51
2023-01-25T02:13:53.422Z,996.61
2023-01-25T02:14:06.728Z,996.61
2023-01-25T02:14:36.986Z,996.61
2023-01-25T02:15:09.532Z,996.51
2023-01-25T02:15:39.502Z,996.51
2023-01-25T02:16:10.726Z,996.51
2023-01-25T02:16:42.087Z,996.51
2023-01-25T02:17:13.361Z,996.41
2023-01-25T02:17:44.791Z,996.41
2023-01-25T02:18:17.812Z,996.71
2023-01-25T02:18:45.933Z,996.71
2023-01-25T02:19:16.584Z,996.61
2023-01-25T02:19:47.257Z,996.61
2023-01-25T02:20:20.629Z,996.51
2023-01-25T02:20:49.345Z,996.61
2023-01-25T02:21:20.571Z,996.61
2023-01-25T02:21:51.154Z,996.51
2023-01-25T02:22:22.990Z,996.51
2023-01-25T02:22:54.156Z,996.51
2023-01-25T02:23:25.315Z,996.51
2023-01-25T02:23:55.746Z,996.51
2023-01-25T02:24:26.425Z,996.51
2023-01-25T02:24:57.235Z,996.41
2023-01-25T02:25:28.470Z,996.41
2023-01-25T02:26:00.846Z,996.51
2023-01-25T02:26:31.000Z,996.51
2023-01-25T02:27:01.913Z,996.51
2023-01-25T02:27:32.892Z,996.51
2023-01-25T02:28:04.316Z,996.51
2023-01-25T02:28:34.727Z,996.51
2023-01-25T02:29:05.754Z,996.41
2023-01-25T02:29:36.357Z,996.41
2023-01-25T02:30:08.792Z,996.31
2023-01-25T02:30:38.453Z,996.31
2023-01-25T02:31:09.783Z,996.51
2023-01-25T02:31:40.405Z,996.51
2023-01-25T02:32:12.029Z,996.31
2023-01-25T02:32:42.458Z,996.31
2023-01-25T02:33:14.887Z,996.61
2023-01-25T02:33:44.836Z,996.61
2023-01-25T02:34:16.550Z,996.31
2023-01-25T02:34:46.639Z,996.31
2023-01-25T02:35:17.715Z,996.31
2023-01-25T02:35:48.313Z,996.31
2023-01-25T02:36:19.668Z,996.31
2023-01-25T02:36:50.275Z,996.41
2023-01-25T02:37:24.794Z,996.41
2023-01-25T02:37:52.797Z,996.21
2023-01-25T02:38:24.434Z,996.21
2023-01-25T02:38:55.678Z,996.31
2023-01-25T02:39:26.752Z,996.31
2023-01-25T02:39:56.662Z,996.21
2023-01-25T02:40:27.068Z,996.21
2023-01-25T02:40:58.601Z,996.31
2023-01-25T02:41:29.412Z,996.31
2023-01-25T02:42:00.550Z,996.10
2023-01-25T02:42:31.746Z,996.10
2023-01-25T02:43:02.424Z,996.31
2023-01-25T02:43:34.267Z,996.31
2023-01-25T02:44:05.044Z,996.41
2023-01-25T02:44:52.882Z,996.31
2023-01-25T02:45:38.072Z,996.31
2023-01-25T02:46:08.539Z,996.10
2023-01-25T02:46:46.395Z,996.10
2023-01-25T02:47:10.478Z,996.21
2023-01-25T02:47:41.527Z,996.21
2023-01-25T02:48:43.800Z,996.21
2023-01-25T02:49:15.057Z,996.21
2023-01-25T02:49:45.872Z,996.21
2023-01-25T02:50:17.183Z,996.41
2023-01-25T02:50:47.356Z,996.41
2023-01-25T02:51:18.485Z,996.21
2023-01-25T02:51:49.893Z,996.21
2023-01-25T02:52:51.169Z,996.31
2023-01-25T02:53:22.350Z,996.31
2023-01-25T02:53:53.430Z,996.10
2023-01-25T02:54:25.324Z,996.10
2023-01-25T02:54:55.809Z,996.10
2023-01-25T02:55:27.140Z,996.10
2023-01-25T02:55:57.392Z,996.10
2023-01-25T02:56:28.595Z,996.10
2023-01-25T02:56:59.499Z,996.21
2023-01-25T02:57:30.987Z,996.21
2023-01-25T02:58:01.300Z,996.00
2023-01-25T02:58:32.459Z,996.00
2023-01-25T02:59:04.070Z,996.10
2023-01-25T02:59:35.311Z,996.10
2023-01-25T03:00:05.792Z,996.21
2023-01-25T03:00:37.313Z,996.21
2023-01-25T03:01:08.234Z,996.10
2023-01-25T03:01:38.794Z,996.10
2023-01-25T03:02:09.790Z,996.00
2023-01-25T03:02:40.762Z,996.00
2023-01-25T03:03:11.728Z,995.90
2023-01-25T03:03:42.211Z,995.90
2023-01-25T03:04:13.783Z,995.70
2023-01-25T03:04:50.751Z,995.80
2023-01-25T03:05:15.853Z,995.80
2023-01-25T03:05:47.752Z,995.80
2023-01-25T03:06:18.359Z,995.90
2023-01-25T03:06:49.037Z,995.90
2023-01-25T03:07:37.571Z,995.80
2023-01-25T03:07:52.581Z,995.90
2023-01-25T03:08:38.926Z,995.90
2023-01-25T03:08:52.551Z,995.70
2023-01-25T03:09:23.631Z,995.70
2023-01-25T03:09:55.931Z,995.80
2023-01-25T03:10:26.719Z,995.80
2023-01-25T03:10:56.905Z,995.70
2023-01-25T03:11:28.064Z,995.70
2023-01-25T03:11:58.753Z,995.60
2023-01-25T03:12:29.771Z,995.60
2023-01-25T03:13:02.091Z,995.80
2023-01-25T03:13:31.559Z,995.80
2023-01-25T03:14:02.764Z,995.60
2023-01-25T03:14:33.465Z,995.60
2023-01-25T03:15:06.737Z,995.70
2023-01-25T03:15:35.823Z,995.70
2023-01-25T03:16:07.407Z,995.70
2023-01-25T03:16:38.172Z,995.70
2023-01-25T03:17:08.981Z,995.70
2023-01-25T03:17:40.004Z,995.70
2023-01-25T03:18:10.722Z,995.80
2023-01-25T03:18:44.407Z,995.80
2023-01-25T03:19:12.803Z,995.60
2023-01-25T03:19:43.560Z,995.60
2023-01-25T03:20:31.451Z,995.80
2023-01-25T03:20:46.479Z,995.80
2023-01-25T03:21:17.316Z,995.90
2023-01-25T03:21:48.656Z,995.90
2023-01-25T03:22:18.915Z,995.80
2023-01-25T03:22:49.862Z,995.80
2023-01-25T03:23:20.611Z,995.80
2023-01-25T03:23:51.575Z,995.80
2023-01-25T03:24:22.787Z,995.80
2023-01-25T03:24:53.469Z,995.80
2023-01-25T03:25:25.700Z,995.80
2023-01-25T03:25:56.508Z,995.70
2023-01-25T03:26:27.233Z,995.70
2023-01-25T03:26:58.471Z,995.60
2023-01-25T03:27:28.919Z,995.60
2023-01-25T03:27:59.865Z,995.70
2023-01-25T03:28:30.728Z,995.70
2023-01-25T03:29:03.380Z,995.80
2023-01-25T03:29:32.405Z,995.80
2023-01-25T03:30:04.368Z,995.60
2023-01-25T03:30:35.079Z,995.60
2023-01-25T03:31:06.187Z,995.60
2023-01-25T03:31:37.016Z,995.60
2023-01-25T03:32:08.303Z,995.50
2023-01-25T03:32:39.057Z,995.50
2023-01-25T03:33:09.994Z,995.60
2023-01-25T03:33:41.146Z,995.60
2023-01-25T03:34:11.398Z,995.50
2023-01-25T03:34:42.978Z,995.50
2023-01-25T03:35:13.871Z,995.60
2023-01-25T03:35:45.230Z,995.60
2023-01-25T03:36:17.008Z,995.39
2023-01-25T03:36:47.555Z,995.39
2023-01-25T03:37:20.963Z,995.50
2023-01-25T03:37:49.301Z,995.50
2023-01-25T03:38:19.747Z,995.29
2023-01-25T03:38:50.931Z,995.39
2023-01-25T03:39:21.536Z,995.39
2023-01-25T03:39:52.484Z,995.39
2023-01-25T03:40:24.349Z,995.39
2023-01-25T03:40:55.051Z,995.39
2023-01-25T03:41:27.549Z,995.39
2023-01-25T03:41:57.247Z,995.50
2023-01-25T03:42:28.087Z,995.50
2023-01-25T03:42:59.020Z,995.39
2023-01-25T03:43:29.780Z,995.39
2023-01-25T03:44:01.103Z,995.39
2023-01-25T03:44:49.843Z,995.39
2023-01-25T03:45:04.474Z,995.50
2023-01-25T03:45:33.996Z,995.50
2023-01-25T03:46:04.746Z,995.60
2023-01-25T03:46:36.856Z,995.60
2023-01-25T03:47:07.325Z,995.39
2023-01-25T03:47:38.135Z,995.39
2023-01-25T03:48:09.218Z,995.50
2023-01-25T03:48:39.915Z,995.50
2023-01-25T03:49:10.913Z,995.50
2023-01-25T03:49:41.657Z,995.50
2023-01-25T03:50:13.264Z,995.50
2023-01-25T03:50:43.518Z,995.50
2023-01-25T03:51:15.979Z,995.50
2023-01-25T03:51:46.468Z,995.50
2023-01-25T03:52:17.589Z,995.50
2023-01-25T03:52:48.332Z,995.50
2023-01-25T03:53:19.457Z,995.39
2023-01-25T03:53:49.752Z,995.39
2023-01-25T03:54:20.882Z,995.39
2023-01-25T03:54:51.873Z,995.39
2023-01-25T03:55:23.753Z,995.39
2023-01-25T03:55:53.766Z,995.39
2023-01-25T03:56:24.977Z,995.39
2023-01-25T03:56:56.756Z,995.50
2023-01-25T03:57:27.266Z,995.50
2023-01-25T03:57:58.163Z,995.29
2023-01-25T03:58:29.462Z,995.29
2023-01-25T03:59:00.203Z,995.50
2023-01-25T03:59:30.883Z,995.50
2023-01-25T04:00:03.001Z,995.50
2023-01-25T04:00:32.797Z,995.50
2023-01-25T04:01:04.063Z,995.09
2023-01-25T04:01:52.006Z,995.19
2023-01-25T04:02:07.062Z,995.19
2023-01-25T04:02:37.552Z,995.19
2023-01-25T04:03:08.539Z,995.29
2023-01-25T04:03:40.371Z,995.29
2023-01-25T04:04:10.071Z,995.19
2023-01-25T04:04:41.513Z,995.19
2023-01-25T04:05:12.498Z,995.29
2023-01-25T04:05:42.750Z,995.29
2023-01-25T04:06:14.012Z,995.39
2023-01-25T04:06:44.908Z,995.39
2023-01-25T04:07:16.500Z,995.29
2023-01-25T04:07:49.382Z,995.29
2023-01-25T04:08:18.254Z,995.19
2023-01-25T04:08:49.786Z,995.19
2023-01-25T04:09:58.680Z,995.39
2023-01-25T04:10:22.478Z,995.39
2023-01-25T04:10:52.905Z,995.29
2023-01-25T04:11:23.627Z,995.29
2023-01-25T04:11:54.795Z,995.39
2023-01-25T04:12:57.412Z,995.39
2023-01-25T04:13:28.603Z,995.39
2023-01-25T04:13:59.006Z,995.29
2023-01-25T04:14:43.688Z,995.29
2023-01-25T04:15:01.196Z,995.39
2023-01-25T04:15:32.003Z,995.39
2023-01-25T04:16:02.935Z,995.50
2023-01-25T04:16:33.688Z,995.50
2023-01-25T04:17:05.041Z,995.29
2023-01-25T04:17:36.559Z,995.29
2023-01-25T04:18:07.611Z,995.09
2023-01-25T04:18:38.234Z,995.09
2023-01-25T04:19:09.446Z,995.29
2023-01-25T04:19:40.065Z,995.29
2023-01-25T04:20:11.318Z,995.29
2023-01-25T04:20:42.382Z,995.29
2023-01-25T04:21:13.026Z,995.29
2023-01-25T04:21:43.813Z,995.29
2023-01-25T04:22:15.421Z,995.29
2023-01-25T04:22:46.247Z,995.29
2023-01-25T04:23:17.359Z,995.29
2023-01-25T04:23:48.507Z,995.29
2023-01-25T04:24:19.392Z,995.19
2023-01-25T04:24:50.759Z,995.09
2023-01-25T04:25:21.289Z,995.09
2023-01-25T04:25:51.990Z,995.19
2023-01-25T04:26:31.480Z,995.19
2023-01-25T04:26:53.943Z,995.29
2023-01-25T04:27:24.916Z,995.29
2023-01-25T04:27:56.148Z,995.29
2023-01-25T04:28:27.621Z,995.29
2023-01-25T04:28:58.723Z,995.19
2023-01-25T04:29:40.531Z,995.19
2023-01-25T04:30:00.963Z,995.19
2023-01-25T04:30:31.065Z,995.19
2023-01-25T04:31:01.920Z,995.19
2023-01-25T04:31:33.495Z,995.19
2023-01-25T04:32:03.953Z,995.09
2023-01-25T04:32:35.035Z,995.09
2023-01-25T04:33:06.847Z,995.29
2023-01-25T04:33:37.648Z,995.29
2023-01-25T04:34:08.969Z,995.19
2023-01-25T04:34:39.417Z,995.19
2023-01-25T04:35:10.610Z,995.19
2023-01-25T04:35:41.321Z,995.19
2023-01-25T04:36:11.661Z,995.19
2023-01-25T04:36:43.039Z,995.19
2023-01-25T04:37:45.200Z,994.99
2023-01-25T04:38:16.784Z,995.19
2023-01-25T04:38:47.975Z,995.19
2023-01-25T04:39:19.744Z,995.19
2023-01-25T04:39:49.149Z,995.19
2023-01-25T04:40:21.300Z,995.09
2023-01-25T04:40:51.079Z,995.09
2023-01-25T04:41:22.732Z,995.09
2023-01-25T04:41:52.957Z,995.09
2023-01-25T04:42:54.929Z,994.99
2023-01-25T04:43:26.062Z,994.99
2023-01-25T04:43:57.172Z,995.19
2023-01-25T04:44:44.727Z,995.19
2023-01-25T04:44:59.444Z,995.19
2023-01-25T04:45:30.587Z,995.19
2023-01-25T04:46:01.283Z,995.09
2023-01-25T04:46:31.883Z,995.09
2023-01-25T04:47:03.430Z,995.09
2023-01-25T04:47:33.698Z,995.09
2023-01-25T04:48:04.694Z,995.09
2023-01-25T04:48:36.165Z,995.09
2023-01-25T04:49:07.571Z,994.99
2023-01-25T04:49:38.407Z,994.99
2023-01-25T04:50:10.503Z,995.09
2023-01-25T04:50:40.165Z,995.09
2023-01-25T04:51:11.176Z,994.99
2023-01-25T04:51:41.773Z,994.99
2023-01-25T04:52:12.988Z,994.89
2023-01-25T04:52:44.065Z,994.89
2023-01-25T04:53:14.788Z,995.09
2023-01-25T04:53:46.401Z,995.09
2023-01-25T04:54:17.461Z,995.19
2023-01-25T04:54:48.296Z,995.19
2023-01-25T04:55:19.459Z,994.99
2023-01-25T04:55:53.462Z,994.99
2023-01-25T04:56:21.429Z,994.99
2023-01-25T04:56:51.808Z,995.09
2023-01-25T04:57:23.079Z,995.09
2023-01-25T04:57:53.690Z,994.99
2023-01-25T04:58:25.229Z,994.99
2023-01-25T04:58:55.847Z,994.99
2023-01-25T04:59:27.656Z,994.99
2023-01-25T04:59:58.293Z,995.09
2023-01-25T05:00:29.103Z,995.09
2023-01-25T05:01:00.856Z,995.09
2023-01-25T05:01:31.540Z,995.09
2023-01-25T05:02:02.173Z,994.99
2023-01-25T05:02:33.414Z,994.99
2023-01-25T05:03:04.062Z,994.99
2023-01-25T05:03:35.070Z,994.99
2023-01-25T05:04:05.965Z,994.78
2023-01-25T05:04:36.703Z,994.78
2023-01-25T05:05:08.960Z,995.09
2023-01-25T05:05:39.848Z,995.09
2023-01-25T05:06:11.335Z,995.19
2023-01-25T05:06:41.679Z,995.19
2023-01-25T05:07:18.697Z,994.99
2023-01-25T05:07:43.739Z,994.99
2023-01-25T05:08:16.189Z,995.09
2023-01-25T05:08:45.003Z,995.09
2023-01-25T05:09:15.822Z,995.09
2023-01-25T05:09:46.641Z,995.09
2023-01-25T05:10:19.168Z,994.68
2023-01-25T05:10:51.406Z,994.78
2023-01-25T05:11:20.511Z,994.78
2023-01-25T05:11:51.831Z,995.09
2023-01-25T05:12:39.826Z,995.09
2023-01-25T05:12:53.454Z,994.99
2023-01-25T05:13:24.229Z,994.99
2023-01-25T05:13:55.439Z,995.09
2023-01-25T05:14:25.897Z,995.09
2023-01-25T05:14:56.915Z,994.99
2023-01-25T05:15:28.098Z,994.99
2023-01-25T05:15:59.322Z,994.89
2023-01-25T05:16:31.262Z,994.89
2023-01-25T05:17:02.347Z,994.89
2023-01-25T05:17:32.793Z,994.89
2023-01-25T05:18:47.471Z,994.99
2023-01-25T05:19:06.323Z,994.89
2023-01-25T05:19:36.145Z,994.89
2023-01-25T05:20:07.324Z,994.89
2023-01-25T05:20:38.238Z,994.89
2023-01-25T05:21:09.998Z,994.99
2023-01-25T05:22:11.839Z,995.09
2023-01-25T05:22:43.566Z,995.09
2023-01-25T05:23:13.091Z,994.89
2023-01-25T05:23:44.185Z,994.89
2023-01-25T05:24:15.254Z,994.89
2023-01-25T05:24:46.022Z,994.89
2023-01-25T05:25:16.754Z,994.99
2023-01-25T05:25:48.060Z,994.99
2023-01-25T05:26:21.864Z,994.99
2023-01-25T05:26:50.668Z,994.99
2023-01-25T05:27:22.445Z,994.99
2023-01-25T05:27:53.210Z,994.99
2023-01-25T05:28:24.314Z,994.99
2023-01-25T05:28:55.315Z,994.78
2023-01-25T05:29:25.668Z,994.78
2023-01-25T05:29:56.090Z,994.89
2023-01-25T05:30:28.381Z,994.89
2023-01-25T05:30:58.060Z,994.78
2023-01-25T05:31:30.120Z,994.78
2023-01-25T05:32:01.778Z,994.89
2023-01-25T05:32:33.580Z,994.89
2023-01-25T05:33:03.743Z,994.78
2023-01-25T05:33:33.588Z,994.78
2023-01-25T05:34:04.098Z,994.78
2023-01-25T05:34:35.133Z,994.78
2023-01-25T05:35:07.025Z,994.99
2023-01-25T05:35:37.533Z,994.99
2023-01-25T05:36:09.408Z,994.99
2023-01-25T05:36:40.186Z,994.99
2023-01-25T05:37:11.138Z,994.89
2023-01-25T05:37:42.401Z,994.89
2023-01-25T05:38:13.070Z,994.78
2023-01-25T05:38:44.160Z,994.78
2023-01-25T05:39:14.006Z,994.89
2023-01-25T05:39:45.184Z,994.89
2023-01-25T05:40:16.479Z,994.89
2023-01-25T05:40:46.999Z,994.89
2023-01-25T05:41:19.206Z,994.78
2023-01-25T05:41:49.927Z,994.89
2023-01-25T05:42:22.366Z,994.89
2023-01-25T05:42:52.791Z,994.78
2023-01-25T05:43:24.308Z,994.78
2023-01-25T05:44:11.053Z,994.89
2023-01-25T05:44:23.907Z,994.89
2023-01-25T05:44:56.249Z,994.89
2023-01-25T05:45:32.442Z,994.89
2023-01-25T05:45:57.054Z,994.78
2023-01-25T05:46:29.275Z,994.78
2023-01-25T05:46:59.710Z,994.78
2023-01-25T05:47:30.962Z,994.78
2023-01-25T05:48:02.387Z,994.89
2023-01-25T05:48:33.380Z,994.89
2023-01-25T05:49:03.911Z,994.78
2023-01-25T05:49:34.027Z,994.78
2023-01-25T05:50:07.583Z,994.78
2023-01-25T05:50:37.087Z,994.78
2023-01-25T05:51:07.380Z,994.78
2023-01-25T05:51:38.820Z,994.78
2023-01-25T05:52:09.590Z,994.78
2023-01-25T05:52:58.049Z,994.89
2023-01-25T05:53:12.977Z,994.89
2023-01-25T05:53:42.276Z,994.89
2023-01-25T05:54:13.159Z,994.68
2023-01-25T05:54:44.205Z,994.68
2023-01-25T05:55:15.831Z,994.68
2023-01-25T05:55:46.443Z,994.68
2023-01-25T05:56:17.002Z,994.68
2023-01-25T05:56:48.709Z,994.68
2023-01-25T05:57:19.728Z,994.89
2023-01-25T05:57:52.150Z,994.89
2023-01-25T05:58:22.507Z,994.89
2023-01-25T05:58:52.316Z,994.89
2023-01-25T05:59:23.251Z,994.89
2023-01-25T05:59:54.486Z,994.78
2023-01-25T06:00:26.600Z,994.78
2023-01-25T06:00:56.550Z,994.89
2023-01-25T06:01:27.779Z,994.89
2023-01-25T06:01:58.614Z,994.78
2023-01-25T06:02:29.898Z,994.78
2023-01-25T06:03:00.756Z,994.78
2023-01-25T06:03:32.155Z,994.78
2023-01-25T06:04:22.335Z,994.68
2023-01-25T06:04:33.302Z,994.68
2023-01-25T06:05:04.263Z,994.68
2023-01-25T06:05:35.009Z,994.68
2023-01-25T06:06:06.416Z,994.78
2023-01-25T06:06:37.210Z,994.78
2023-01-25T06:07:08.309Z,994.89
2023-01-25T06:07:40.138Z,994.89
2023-01-25T06:08:11.441Z,994.89
2023-01-25T06:08:42.237Z,994.89
2023-01-25T06:09:12.437Z,994.89
2023-01-25T06:09:43.216Z,994.89
2023-01-25T06:10:14.837Z,994.89
2023-01-25T06:11:03.051Z,994.89
2023-01-25T06:11:15.945Z,994.89
2023-01-25T06:11:47.130Z,994.89
2023-01-25T06:12:18.853Z,994.99
2023-01-25T06:12:50.070Z,994.68
2023-01-25T06:13:21.246Z,994.68
2023-01-25T06:13:53.039Z,994.78
2023-01-25T06:14:22.586Z,994.78
2023-01-25T06:14:53.530Z,994.99
2023-01-25T06:15:29.350Z,994.99
2023-01-25T06:16:26.580Z,994.78
2023-01-25T06:16:57.217Z,994.78
2023-01-25T06:18:03.502Z,994.99
2023-01-25T06:18:31.580Z,994.99
2023-01-25T06:19:02.394Z,994.99
2023-01-25T06:19:51.441Z,994.78
2023-01-25T06:20:03.949Z,994.78
2023-01-25T06:20:34.280Z,994.78
2023-01-25T06:21:05.345Z,994.68
2023-01-25T06:21:36.738Z,994.68
2023-01-25T06:22:07.375Z,994.89
2023-01-25T06:23:01.572Z,994.89
2023-01-25T06:23:10.133Z,994.68
2023-01-25T06:23:42.428Z,994.68
2023-01-25T06:33:37.376Z,994.89
2023-01-25T06:34:02.105Z,994.99
2023-01-25T06:34:38.015Z,994.99
2023-01-25T06:35:02.556Z,994.78
2023-01-25T06:35:33.939Z,994.78
2023-01-25T06:36:05.970Z,994.89
2023-01-25T06:36:36.507Z,994.89
2023-01-25T06:37:07.420Z,994.89
2023-01-25T06:38:08.054Z,994.78
2023-01-25T06:38:39.409Z,994.78
2023-01-25T06:39:10.577Z,994.99
2023-01-25T06:39:41.696Z,994.99
2023-01-25T06:40:12.700Z,994.99
2023-01-25T06:40:43.279Z,994.99
2023-01-25T06:41:14.699Z,994.89
2023-01-25T06:41:46.548Z,994.89
2023-01-25T06:42:16.825Z,994.89
2023-01-25T06:42:47.830Z,994.89
2023-01-25T06:43:18.773Z,994.99
2023-01-25T06:43:49.594Z,994.78
2023-01-25T06:44:22.056Z,994.78
2023-01-25T06:44:51.679Z,994.89
2023-01-25T06:45:25.131Z,994.89
2023-01-25T06:45:53.168Z,994.78
2023-01-25T06:46:26.189Z,994.78